sensor_id;sensor_type;location;lat;lon;timestamp;temperature;humidity
74560;DHT22;63032;54.340;10.138;2022-09-09T00:00:18;18.70;68.00
74560;DHT22;63032;54.340;10.138;2022-09-09T00:08:20;18.60;67.90
74560;DHT22;63032;54.340;10.138;2022-09-09T00:10:49;18.70;68.00
74560;DHT22;63032;54.340;10.138;2022-09-09T00:13:37;18.70;68.00
74560;DHT22;63032;54.340;10.138;2022-09-09T00:16:19;18.60;68.00
74560;DHT22;63032;54.340;10.138;2022-09-09T00:21:14;18.70;68.00
74560;DHT22;63032;54.340;10.138;2022-09-09T00:23:52;18.70;68.10
74560;DHT22;63032;54.340;10.138;2022-09-09T00:31:33;18.70;68.00
74560;DHT22;63032;54.340;10.138;2022-09-09T00:34:05;18.70;68.00
74560;DHT22;63032;54.340;10.138;2022-09-09T00:36:36;18.70;67.90
74560;DHT22;63032;54.340;10.138;2022-09-09T00:39:03;18.70;67.90
74560;DHT22;63032;54.340;10.138;2022-09-09T00:41:48;18.70;68.00
74560;DHT22;63032;54.340;10.138;2022-09-09T00:44:31;18.70;68.00
74560;DHT22;63032;54.340;10.138;2022-09-09T00:55:21;18.70;67.90
74560;DHT22;63032;54.340;10.138;2022-09-09T00:57:53;18.70;67.80
74560;DHT22;63032;54.340;10.138;2022-09-09T01:00:22;18.60;67.90
74560;DHT22;63032;54.340;10.138;2022-09-09T01:05:20;18.70;67.90
74560;DHT22;63032;54.340;10.138;2022-09-09T01:07:49;18.70;67.80
74560;DHT22;63032;54.340;10.138;2022-09-09T01:10:44;18.70;67.90
74560;DHT22;63032;54.340;10.138;2022-09-09T01:13:24;18.70;67.90
74560;DHT22;63032;54.340;10.138;2022-09-09T01:15:50;18.70;67.90
74560;DHT22;63032;54.340;10.138;2022-09-09T01:18:21;18.70;67.90
74560;DHT22;63032;54.340;10.138;2022-09-09T01:28:43;18.70;67.80
74560;DHT22;63032;54.340;10.138;2022-09-09T01:31:14;18.70;67.90
74560;DHT22;63032;54.340;10.138;2022-09-09T01:33:40;18.70;67.90
74560;DHT22;63032;54.340;10.138;2022-09-09T01:36:08;18.70;67.90
74560;DHT22;63032;54.340;10.138;2022-09-09T01:38:35;18.70;67.90
74560;DHT22;63032;54.340;10.138;2022-09-09T01:41:01;18.70;68.00
74560;DHT22;63032;54.340;10.138;2022-09-09T01:43:28;18.70;67.90
74560;DHT22;63032;54.340;10.138;2022-09-09T01:45:56;18.70;67.90
74560;DHT22;63032;54.340;10.138;2022-09-09T01:48:24;18.60;67.80
74560;DHT22;63032;54.340;10.138;2022-09-09T01:50:51;18.70;67.90
74560;DHT22;63032;54.340;10.138;2022-09-09T01:53:18;18.60;67.90
74560;DHT22;63032;54.340;10.138;2022-09-09T01:56:12;18.70;67.80
74560;DHT22;63032;54.340;10.138;2022-09-09T02:01:27;18.70;67.90
74560;DHT22;63032;54.340;10.138;2022-09-09T02:03:59;18.70;67.90
74560;DHT22;63032;54.340;10.138;2022-09-09T02:06:36;18.70;67.90
74560;DHT22;63032;54.340;10.138;2022-09-09T02:09:05;18.70;67.90
74560;DHT22;63032;54.340;10.138;2022-09-09T02:11:32;18.70;67.80
74560;DHT22;63032;54.340;10.138;2022-09-09T02:14:07;18.70;67.90
74560;DHT22;63032;54.340;10.138;2022-09-09T02:16:43;18.70;67.90
74560;DHT22;63032;54.340;10.138;2022-09-09T02:21:55;18.60;67.80
74560;DHT22;63032;54.340;10.138;2022-09-09T02:24:21;18.70;67.90
74560;DHT22;63032;54.340;10.138;2022-09-09T02:26:50;18.70;68.00
74560;DHT22;63032;54.340;10.138;2022-09-09T02:29:34;18.70;67.90
74560;DHT22;63032;54.340;10.138;2022-09-09T02:32:06;18.70;67.80
74560;DHT22;63032;54.340;10.138;2022-09-09T02:34:36;18.70;67.90
74560;DHT22;63032;54.340;10.138;2022-09-09T02:37:03;18.70;67.90
74560;DHT22;63032;54.340;10.138;2022-09-09T02:39:29;18.70;67.90
74560;DHT22;63032;54.340;10.138;2022-09-09T02:41:54;18.70;67.80
74560;DHT22;63032;54.340;10.138;2022-09-09T02:44:20;18.60;67.80
74560;DHT22;63032;54.340;10.138;2022-09-09T02:47:07;18.70;67.90
74560;DHT22;63032;54.340;10.138;2022-09-09T02:52:08;18.60;67.90
74560;DHT22;63032;54.340;10.138;2022-09-09T02:54:39;18.60;67.80
74560;DHT22;63032;54.340;10.138;2022-09-09T02:57:22;18.70;67.90
74560;DHT22;63032;54.340;10.138;2022-09-09T02:59:50;18.70;68.00
74560;DHT22;63032;54.340;10.138;2022-09-09T03:02:18;18.70;68.00
74560;DHT22;63032;54.340;10.138;2022-09-09T03:04:44;18.70;67.90
74560;DHT22;63032;54.340;10.138;2022-09-09T03:07:11;18.70;67.90
74560;DHT22;63032;54.340;10.138;2022-09-09T03:09:37;18.70;67.80
74560;DHT22;63032;54.340;10.138;2022-09-09T03:12:03;18.70;67.80
74560;DHT22;63032;54.340;10.138;2022-09-09T03:14:32;18.60;67.70
74560;DHT22;63032;54.340;10.138;2022-09-09T03:16:58;18.70;67.70
74560;DHT22;63032;54.340;10.138;2022-09-09T03:19:26;18.70;67.80
74560;DHT22;63032;54.340;10.138;2022-09-09T03:21:53;18.70;67.80
74560;DHT22;63032;54.340;10.138;2022-09-09T03:24:19;18.70;67.90
74560;DHT22;63032;54.340;10.138;2022-09-09T03:26:45;18.70;67.80
74560;DHT22;63032;54.340;10.138;2022-09-09T03:29:11;18.70;67.80
74560;DHT22;63032;54.340;10.138;2022-09-09T03:31:38;18.70;68.00
74560;DHT22;63032;54.340;10.138;2022-09-09T03:34:04;18.60;67.90
74560;DHT22;63032;54.340;10.138;2022-09-09T03:36:30;18.60;67.90
74560;DHT22;63032;54.340;10.138;2022-09-09T03:38:56;18.70;67.90
74560;DHT22;63032;54.340;10.138;2022-09-09T03:41:23;18.70;67.80
74560;DHT22;63032;54.340;10.138;2022-09-09T03:43:52;18.60;67.80
74560;DHT22;63032;54.340;10.138;2022-09-09T03:46:20;18.70;67.90
74560;DHT22;63032;54.340;10.138;2022-09-09T03:48:45;18.70;67.90
74560;DHT22;63032;54.340;10.138;2022-09-09T03:51:11;18.60;67.80
74560;DHT22;63032;54.340;10.138;2022-09-09T03:53:37;18.60;67.80
74560;DHT22;63032;54.340;10.138;2022-09-09T03:56:04;18.60;67.90
74560;DHT22;63032;54.340;10.138;2022-09-09T03:58:36;18.60;67.90
74560;DHT22;63032;54.340;10.138;2022-09-09T04:01:07;18.60;67.80
74560;DHT22;63032;54.340;10.138;2022-09-09T04:03:39;18.60;67.80
74560;DHT22;63032;54.340;10.138;2022-09-09T04:06:09;18.60;68.30
74560;DHT22;63032;54.340;10.138;2022-09-09T04:08:36;18.60;67.80
74560;DHT22;63032;54.340;10.138;2022-09-09T04:11:03;18.60;67.80
74560;DHT22;63032;54.340;10.138;2022-09-09T04:13:32;18.60;67.80
74560;DHT22;63032;54.340;10.138;2022-09-09T04:15:59;18.60;67.80
74560;DHT22;63032;54.340;10.138;2022-09-09T04:18:25;18.60;67.70
74560;DHT22;63032;54.340;10.138;2022-09-09T04:20:52;18.60;67.90
74560;DHT22;63032;54.340;10.138;2022-09-09T04:23:20;18.60;67.90
74560;DHT22;63032;54.340;10.138;2022-09-09T04:25:47;18.60;67.90
74560;DHT22;63032;54.340;10.138;2022-09-09T04:28:14;18.60;67.80
74560;DHT22;63032;54.340;10.138;2022-09-09T04:30:41;18.60;67.80
74560;DHT22;63032;54.340;10.138;2022-09-09T04:33:07;18.60;67.80
74560;DHT22;63032;54.340;10.138;2022-09-09T04:35:33;18.60;67.90
74560;DHT22;63032;54.340;10.138;2022-09-09T04:37:59;18.60;67.90
74560;DHT22;63032;54.340;10.138;2022-09-09T04:40:25;18.60;67.80
74560;DHT22;63032;54.340;10.138;2022-09-09T04:42:51;18.60;67.90
74560;DHT22;63032;54.340;10.138;2022-09-09T04:45:16;18.60;67.90
74560;DHT22;63032;54.340;10.138;2022-09-09T04:47:42;18.60;68.70
74560;DHT22;63032;54.340;10.138;2022-09-09T04:50:08;18.60;67.80
74560;DHT22;63032;54.340;10.138;2022-09-09T04:52:35;18.60;67.90
74560;DHT22;63032;54.340;10.138;2022-09-09T04:55:01;18.60;67.90
74560;DHT22;63032;54.340;10.138;2022-09-09T04:57:27;18.60;67.80
74560;DHT22;63032;54.340;10.138;2022-09-09T04:59:54;18.60;67.90
74560;DHT22;63032;54.340;10.138;2022-09-09T05:02:23;18.60;67.80
74560;DHT22;63032;54.340;10.138;2022-09-09T05:04:49;18.60;67.80
74560;DHT22;63032;54.340;10.138;2022-09-09T05:07:15;18.60;67.70
74560;DHT22;63032;54.340;10.138;2022-09-09T05:09:40;18.60;67.80
74560;DHT22;63032;54.340;10.138;2022-09-09T05:12:06;18.60;67.90
74560;DHT22;63032;54.340;10.138;2022-09-09T05:14:32;18.60;67.70
74560;DHT22;63032;54.340;10.138;2022-09-09T05:17:01;18.60;67.70
74560;DHT22;63032;54.340;10.138;2022-09-09T05:19:26;18.60;67.70
74560;DHT22;63032;54.340;10.138;2022-09-09T05:21:52;18.60;67.70
74560;DHT22;63032;54.340;10.138;2022-09-09T05:24:18;18.60;67.70
74560;DHT22;63032;54.340;10.138;2022-09-09T05:26:43;18.60;67.70
74560;DHT22;63032;54.340;10.138;2022-09-09T05:29:09;18.60;67.70
74560;DHT22;63032;54.340;10.138;2022-09-09T05:31:35;18.60;67.80
74560;DHT22;63032;54.340;10.138;2022-09-09T05:34:00;18.60;67.90
74560;DHT22;63032;54.340;10.138;2022-09-09T05:36:26;18.60;67.80
74560;DHT22;63032;54.340;10.138;2022-09-09T05:38:52;18.60;67.90
74560;DHT22;63032;54.340;10.138;2022-09-09T05:41:20;18.70;67.90
74560;DHT22;63032;54.340;10.138;2022-09-09T05:43:48;18.60;67.90
74560;DHT22;63032;54.340;10.138;2022-09-09T05:46:19;18.60;68.70
74560;DHT22;63032;54.340;10.138;2022-09-09T05:48:46;18.70;67.90
74560;DHT22;63032;54.340;10.138;2022-09-09T05:51:14;18.60;67.90
74560;DHT22;63032;54.340;10.138;2022-09-09T05:53:44;18.70;67.90
74560;DHT22;63032;54.340;10.138;2022-09-09T05:56:12;18.60;67.90
74560;DHT22;63032;54.340;10.138;2022-09-09T05:58:41;18.70;68.70
74560;DHT22;63032;54.340;10.138;2022-09-09T06:01:12;18.70;67.90
74560;DHT22;63032;54.340;10.138;2022-09-09T06:03:42;18.70;68.00
74560;DHT22;63032;54.340;10.138;2022-09-09T06:06:20;18.70;67.90
74560;DHT22;63032;54.340;10.138;2022-09-09T06:08:47;18.60;67.90
74560;DHT22;63032;54.340;10.138;2022-09-09T06:11:18;18.70;67.90
74560;DHT22;63032;54.340;10.138;2022-09-09T06:13:44;18.70;67.90
74560;DHT22;63032;54.340;10.138;2022-09-09T06:16:12;18.70;68.00
74560;DHT22;63032;54.340;10.138;2022-09-09T06:18:40;18.70;68.00
74560;DHT22;63032;54.340;10.138;2022-09-09T06:21:09;18.70;67.90
74560;DHT22;63032;54.340;10.138;2022-09-09T06:23:37;18.70;67.90
74560;DHT22;63032;54.340;10.138;2022-09-09T06:26:17;18.80;68.10
74560;DHT22;63032;54.340;10.138;2022-09-09T06:28:48;18.70;68.10
74560;DHT22;63032;54.340;10.138;2022-09-09T06:31:16;18.80;68.00
74560;DHT22;63032;54.340;10.138;2022-09-09T06:33:43;18.80;67.70
74560;DHT22;63032;54.340;10.138;2022-09-09T06:36:13;18.80;67.70
74560;DHT22;63032;54.340;10.138;2022-09-09T06:38:40;18.80;67.80
74560;DHT22;63032;54.340;10.138;2022-09-09T06:41:08;18.80;67.80
74560;DHT22;63032;54.340;10.138;2022-09-09T06:43:34;18.80;67.70
74560;DHT22;63032;54.340;10.138;2022-09-09T06:46:11;18.80;67.70
74560;DHT22;63032;54.340;10.138;2022-09-09T06:48:39;18.80;67.70
74560;DHT22;63032;54.340;10.138;2022-09-09T06:53:37;18.80;67.70
74560;DHT22;63032;54.340;10.138;2022-09-09T06:56:27;18.80;67.70
74560;DHT22;63032;54.340;10.138;2022-09-09T06:58:55;18.80;67.80
74560;DHT22;63032;54.340;10.138;2022-09-09T07:01:26;18.80;67.70
74560;DHT22;63032;54.340;10.138;2022-09-09T07:03:54;18.80;67.60
74560;DHT22;63032;54.340;10.138;2022-09-09T07:06:23;18.90;67.60
74560;DHT22;63032;54.340;10.138;2022-09-09T07:08:51;18.80;67.50
74560;DHT22;63032;54.340;10.138;2022-09-09T07:11:17;18.90;67.50
74560;DHT22;63032;54.340;10.138;2022-09-09T07:13:43;18.90;67.30
74560;DHT22;63032;54.340;10.138;2022-09-09T07:16:11;19.00;67.30
74560;DHT22;63032;54.340;10.138;2022-09-09T07:18:39;19.10;67.10
74560;DHT22;63032;54.340;10.138;2022-09-09T07:21:05;19.00;68.80
74560;DHT22;63032;54.340;10.138;2022-09-09T07:23:32;18.80;69.90
74560;DHT22;63032;54.340;10.138;2022-09-09T07:25:58;18.80;70.70
74560;DHT22;63032;54.340;10.138;2022-09-09T07:28:24;18.70;71.30
74560;DHT22;63032;54.340;10.138;2022-09-09T07:30:59;18.70;71.40
74560;DHT22;63032;54.340;10.138;2022-09-09T07:33:26;18.80;71.60
74560;DHT22;63032;54.340;10.138;2022-09-09T07:35:53;18.80;71.80
74560;DHT22;63032;54.340;10.138;2022-09-09T07:38:20;18.80;71.80
74560;DHT22;63032;54.340;10.138;2022-09-09T07:40:46;18.70;72.00
74560;DHT22;63032;54.340;10.138;2022-09-09T07:43:12;18.80;72.20
74560;DHT22;63032;54.340;10.138;2022-09-09T07:45:41;18.80;71.60
74560;DHT22;63032;54.340;10.138;2022-09-09T07:48:08;18.80;71.70
74560;DHT22;63032;54.340;10.138;2022-09-09T07:50:34;18.80;71.40
74560;DHT22;63032;54.340;10.138;2022-09-09T07:53:00;18.90;71.30
74560;DHT22;63032;54.340;10.138;2022-09-09T07:55:25;19.00;71.10
74560;DHT22;63032;54.340;10.138;2022-09-09T07:57:53;19.00;71.30
74560;DHT22;63032;54.340;10.138;2022-09-09T08:00:19;19.00;71.30
74560;DHT22;63032;54.340;10.138;2022-09-09T08:02:49;19.10;71.30
74560;DHT22;63032;54.340;10.138;2022-09-09T08:05:14;19.00;71.30
74560;DHT22;63032;54.340;10.138;2022-09-09T08:07:40;19.00;71.30
74560;DHT22;63032;54.340;10.138;2022-09-09T08:10:06;19.00;71.40
74560;DHT22;63032;54.340;10.138;2022-09-09T08:12:32;19.00;71.40
74560;DHT22;63032;54.340;10.138;2022-09-09T08:14:58;19.20;71.10
74560;DHT22;63032;54.340;10.138;2022-09-09T08:17:24;19.30;70.30
74560;DHT22;63032;54.340;10.138;2022-09-09T08:19:49;19.50;70.10
74560;DHT22;63032;54.340;10.138;2022-09-09T08:22:15;19.50;69.80
74560;DHT22;63032;54.340;10.138;2022-09-09T08:24:40;19.60;69.70
74560;DHT22;63032;54.340;10.138;2022-09-09T08:27:06;19.70;69.50
74560;DHT22;63032;54.340;10.138;2022-09-09T08:29:35;19.80;69.00
74560;DHT22;63032;54.340;10.138;2022-09-09T08:32:00;19.90;68.70
74560;DHT22;63032;54.340;10.138;2022-09-09T08:34:26;20.00;68.10
74560;DHT22;63032;54.340;10.138;2022-09-09T08:36:53;20.10;68.20
74560;DHT22;63032;54.340;10.138;2022-09-09T08:39:21;20.20;67.80
74560;DHT22;63032;54.340;10.138;2022-09-09T08:47:06;20.20;67.70
74560;DHT22;63032;54.340;10.138;2022-09-09T08:52:29;20.40;67.20
74560;DHT22;63032;54.340;10.138;2022-09-09T08:57:58;20.20;67.80
74560;DHT22;63032;54.340;10.138;2022-09-09T09:00:41;20.20;68.00
74560;DHT22;63032;54.340;10.138;2022-09-09T09:03:28;20.10;68.10
74560;DHT22;63032;54.340;10.138;2022-09-09T09:06:31;20.00;68.60
74560;DHT22;63032;54.340;10.138;2022-09-09T09:11:27;19.80;69.50
74560;DHT22;63032;54.340;10.138;2022-09-09T09:17:04;19.70;69.80
74560;DHT22;63032;54.340;10.138;2022-09-09T09:19:33;19.60;70.20
74560;DHT22;63032;54.340;10.138;2022-09-09T09:22:14;19.60;70.30
74560;DHT22;63032;54.340;10.138;2022-09-09T09:27:16;19.60;70.80
74560;DHT22;63032;54.340;10.138;2022-09-09T09:29:44;19.70;71.20
74560;DHT22;63032;54.340;10.138;2022-09-09T09:32:17;20.00;69.80
74560;DHT22;63032;54.340;10.138;2022-09-09T09:34:52;20.30;68.90
74560;DHT22;63032;54.340;10.138;2022-09-09T09:37:32;20.60;67.70
74560;DHT22;63032;54.340;10.138;2022-09-09T09:40:14;20.70;66.80
74560;DHT22;63032;54.340;10.138;2022-09-09T09:43:16;20.70;66.70
74560;DHT22;63032;54.340;10.138;2022-09-09T09:45:45;20.80;66.50
74560;DHT22;63032;54.340;10.138;2022-09-09T09:48:12;20.80;65.60
74560;DHT22;63032;54.340;10.138;2022-09-09T09:53:26;21.10;64.70
74560;DHT22;63032;54.340;10.138;2022-09-09T09:55:56;21.00;65.00
74560;DHT22;63032;54.340;10.138;2022-09-09T09:58:23;21.10;65.00
74560;DHT22;63032;54.340;10.138;2022-09-09T10:00:51;21.10;65.00
74560;DHT22;63032;54.340;10.138;2022-09-09T10:05:54;20.90;65.10
74560;DHT22;63032;54.340;10.138;2022-09-09T10:08:23;21.10;65.30
74560;DHT22;63032;54.340;10.138;2022-09-09T10:14:08;21.40;64.00
74560;DHT22;63032;54.340;10.138;2022-09-09T10:20:23;21.60;62.90
74560;DHT22;63032;54.340;10.138;2022-09-09T10:33:41;21.80;62.00
74560;DHT22;63032;54.340;10.138;2022-09-09T10:36:24;21.90;61.50
74560;DHT22;63032;54.340;10.138;2022-09-09T10:41:48;22.20;60.10
74560;DHT22;63032;54.340;10.138;2022-09-09T10:59:49;22.10;60.10
74560;DHT22;63032;54.340;10.138;2022-09-09T11:02:26;22.00;60.60
74560;DHT22;63032;54.340;10.138;2022-09-09T11:10:40;21.90;60.10
74560;DHT22;63032;54.340;10.138;2022-09-09T11:14:03;22.10;59.90
74560;DHT22;63032;54.340;10.138;2022-09-09T11:16:33;22.20;59.20
74560;DHT22;63032;54.340;10.138;2022-09-09T11:19:27;22.30;59.20
74560;DHT22;63032;54.340;10.138;2022-09-09T11:21:55;22.30;59.10
74560;DHT22;63032;54.340;10.138;2022-09-09T11:24:41;22.30;59.00
74560;DHT22;63032;54.340;10.138;2022-09-09T11:35:38;22.90;57.00
74560;DHT22;63032;54.340;10.138;2022-09-09T11:40:35;22.40;58.30
74560;DHT22;63032;54.340;10.138;2022-09-09T11:43:15;22.70;58.00
74560;DHT22;63032;54.340;10.138;2022-09-09T11:45:43;23.00;56.80
74560;DHT22;63032;54.340;10.138;2022-09-09T11:48:35;23.00;56.20
74560;DHT22;63032;54.340;10.138;2022-09-09T11:51:24;23.00;56.30
74560;DHT22;63032;54.340;10.138;2022-09-09T11:54:01;23.10;55.70
74560;DHT22;63032;54.340;10.138;2022-09-09T11:56:44;23.30;55.10
74560;DHT22;63032;54.340;10.138;2022-09-09T11:59:19;23.50;54.80
74560;DHT22;63032;54.340;10.138;2022-09-09T12:04:36;23.00;55.70
74560;DHT22;63032;54.340;10.138;2022-09-09T12:09:54;22.40;57.20
74560;DHT22;63032;54.340;10.138;2022-09-09T12:12:28;22.40;57.60
74560;DHT22;63032;54.340;10.138;2022-09-09T12:17:54;22.50;57.70
74560;DHT22;63032;54.340;10.138;2022-09-09T12:20:30;22.30;58.20
74560;DHT22;63032;54.340;10.138;2022-09-09T12:23:03;22.30;58.30
74560;DHT22;63032;54.340;10.138;2022-09-09T12:30:37;22.90;57.70
74560;DHT22;63032;54.340;10.138;2022-09-09T12:33:12;23.00;56.40
74560;DHT22;63032;54.340;10.138;2022-09-09T12:35:38;23.00;56.70
74560;DHT22;63032;54.340;10.138;2022-09-09T12:38:06;23.00;57.10
74560;DHT22;63032;54.340;10.138;2022-09-09T12:40:37;23.10;56.30
74560;DHT22;63032;54.340;10.138;2022-09-09T12:43:18;23.20;56.30
74560;DHT22;63032;54.340;10.138;2022-09-09T12:45:45;23.30;55.80
74560;DHT22;63032;54.340;10.138;2022-09-09T12:48:18;23.40;55.50
74560;DHT22;63032;54.340;10.138;2022-09-09T12:50:49;23.70;54.90
74560;DHT22;63032;54.340;10.138;2022-09-09T12:53:44;23.90;54.90
74560;DHT22;63032;54.340;10.138;2022-09-09T12:56:19;24.00;54.10
74560;DHT22;63032;54.340;10.138;2022-09-09T12:58:48;24.00;54.20
74560;DHT22;63032;54.340;10.138;2022-09-09T13:01:24;23.80;54.50
74560;DHT22;63032;54.340;10.138;2022-09-09T13:03:50;23.60;54.40
74560;DHT22;63032;54.340;10.138;2022-09-09T13:06:34;23.30;54.90
74560;DHT22;63032;54.340;10.138;2022-09-09T13:09:03;23.00;55.10
74560;DHT22;63032;54.340;10.138;2022-09-09T13:11:45;22.80;55.60
74560;DHT22;63032;54.340;10.138;2022-09-09T13:14:26;22.70;56.20
74560;DHT22;63032;54.340;10.138;2022-09-09T13:16:59;22.70;55.80
74560;DHT22;63032;54.340;10.138;2022-09-09T13:19:29;22.60;56.20
74560;DHT22;63032;54.340;10.138;2022-09-09T13:21:57;22.50;56.30
74560;DHT22;63032;54.340;10.138;2022-09-09T13:24:31;22.70;56.40
74560;DHT22;63032;54.340;10.138;2022-09-09T13:26:58;22.90;55.50
74560;DHT22;63032;54.340;10.138;2022-09-09T13:29:24;23.40;54.30
74560;DHT22;63032;54.340;10.138;2022-09-09T13:31:50;23.60;53.40
74560;DHT22;63032;54.340;10.138;2022-09-09T13:34:28;23.80;52.80
74560;DHT22;63032;54.340;10.138;2022-09-09T13:37:00;23.80;52.60
74560;DHT22;63032;54.340;10.138;2022-09-09T13:39:33;23.70;52.40
74560;DHT22;63032;54.340;10.138;2022-09-09T13:41:59;23.30;53.50
74560;DHT22;63032;54.340;10.138;2022-09-09T13:44:30;23.00;54.10
74560;DHT22;63032;54.340;10.138;2022-09-09T13:47:19;23.20;54.00
74560;DHT22;63032;54.340;10.138;2022-09-09T13:49:46;23.40;53.50
74560;DHT22;63032;54.340;10.138;2022-09-09T13:52:16;23.70;53.10
74560;DHT22;63032;54.340;10.138;2022-09-09T13:54:48;23.70;52.90
74560;DHT22;63032;54.340;10.138;2022-09-09T13:57:24;23.80;52.90
74560;DHT22;63032;54.340;10.138;2022-09-09T13:59:52;23.70;52.70
74560;DHT22;63032;54.340;10.138;2022-09-09T14:02:22;23.80;52.80
74560;DHT22;63032;54.340;10.138;2022-09-09T14:04:48;23.70;52.80
74560;DHT22;63032;54.340;10.138;2022-09-09T14:07:17;23.90;52.40
74560;DHT22;63032;54.340;10.138;2022-09-09T14:09:43;24.10;52.10
74560;DHT22;63032;54.340;10.138;2022-09-09T14:12:12;24.10;51.80
74560;DHT22;63032;54.340;10.138;2022-09-09T14:14:39;23.90;52.60
74560;DHT22;63032;54.340;10.138;2022-09-09T14:17:04;23.70;53.20
74560;DHT22;63032;54.340;10.138;2022-09-09T14:19:31;23.50;54.00
74560;DHT22;63032;54.340;10.138;2022-09-09T14:21:57;23.40;54.20
74560;DHT22;63032;54.340;10.138;2022-09-09T14:24:23;23.60;53.70
74560;DHT22;63032;54.340;10.138;2022-09-09T14:26:49;23.70;53.40
74560;DHT22;63032;54.340;10.138;2022-09-09T14:29:15;23.70;53.50
74560;DHT22;63032;54.340;10.138;2022-09-09T14:31:40;23.60;53.90
74560;DHT22;63032;54.340;10.138;2022-09-09T14:34:06;23.30;54.30
74560;DHT22;63032;54.340;10.138;2022-09-09T14:36:32;23.20;54.90
74560;DHT22;63032;54.340;10.138;2022-09-09T14:38:58;23.00;55.40
74560;DHT22;63032;54.340;10.138;2022-09-09T14:41:24;22.80;55.90
74560;DHT22;63032;54.340;10.138;2022-09-09T14:43:50;22.70;55.90
74560;DHT22;63032;54.340;10.138;2022-09-09T14:46:18;22.70;55.80
74560;DHT22;63032;54.340;10.138;2022-09-09T14:48:45;22.40;55.50
74560;DHT22;63032;54.340;10.138;2022-09-09T14:51:17;22.40;55.70
74560;DHT22;63032;54.340;10.138;2022-09-09T14:53:43;22.40;55.80
74560;DHT22;63032;54.340;10.138;2022-09-09T14:56:14;22.30;56.20
74560;DHT22;63032;54.340;10.138;2022-09-09T14:58:40;22.30;56.60
74560;DHT22;63032;54.340;10.138;2022-09-09T15:01:08;22.20;57.10
74560;DHT22;63032;54.340;10.138;2022-09-09T15:03:38;22.20;57.80
74560;DHT22;63032;54.340;10.138;2022-09-09T15:06:12;22.10;58.30
74560;DHT22;63032;54.340;10.138;2022-09-09T15:08:42;22.10;58.80
74560;DHT22;63032;54.340;10.138;2022-09-09T15:11:10;22.10;59.40
74560;DHT22;63032;54.340;10.138;2022-09-09T15:13:36;22.00;59.90
74560;DHT22;63032;54.340;10.138;2022-09-09T15:16:16;21.90;60.40
74560;DHT22;63032;54.340;10.138;2022-09-09T15:18:43;21.80;60.50
74560;DHT22;63032;54.340;10.138;2022-09-09T15:21:15;21.70;61.00
74560;DHT22;63032;54.340;10.138;2022-09-09T15:23:41;21.70;61.20
74560;DHT22;63032;54.340;10.138;2022-09-09T15:26:08;21.70;61.50
74560;DHT22;63032;54.340;10.138;2022-09-09T15:28:36;21.70;61.70
74560;DHT22;63032;54.340;10.138;2022-09-09T15:31:07;21.70;61.70
74560;DHT22;63032;54.340;10.138;2022-09-09T15:33:34;21.70;62.30
74560;DHT22;63032;54.340;10.138;2022-09-09T15:36:22;21.60;62.70
74560;DHT22;63032;54.340;10.138;2022-09-09T15:38:48;21.40;63.10
74560;DHT22;63032;54.340;10.138;2022-09-09T15:41:15;21.30;63.60
74560;DHT22;63032;54.340;10.138;2022-09-09T15:43:46;21.30;63.30
74560;DHT22;63032;54.340;10.138;2022-09-09T15:46:33;21.40;63.10
74560;DHT22;63032;54.340;10.138;2022-09-09T15:51:29;21.40;62.40
74560;DHT22;63032;54.340;10.138;2022-09-09T15:53:59;21.40;62.30
74560;DHT22;63032;54.340;10.138;2022-09-09T15:56:33;21.40;62.40
74560;DHT22;63032;54.340;10.138;2022-09-09T15:59:00;21.40;62.40
74560;DHT22;63032;54.340;10.138;2022-09-09T16:01:28;21.40;62.40
74560;DHT22;63032;54.340;10.138;2022-09-09T16:03:58;21.40;62.40
74560;DHT22;63032;54.340;10.138;2022-09-09T16:06:25;21.40;62.70
74560;DHT22;63032;54.340;10.138;2022-09-09T16:08:52;21.40;62.70
74560;DHT22;63032;54.340;10.138;2022-09-09T16:11:20;21.30;62.70
74560;DHT22;63032;54.340;10.138;2022-09-09T16:13:48;21.30;62.70
74560;DHT22;63032;54.340;10.138;2022-09-09T16:16:15;21.30;62.70
74560;DHT22;63032;54.340;10.138;2022-09-09T16:18:45;21.30;62.80
74560;DHT22;63032;54.340;10.138;2022-09-09T16:21:19;21.30;62.80
74560;DHT22;63032;54.340;10.138;2022-09-09T16:23:45;21.30;62.80
74560;DHT22;63032;54.340;10.138;2022-09-09T16:26:13;21.30;62.90
74560;DHT22;63032;54.340;10.138;2022-09-09T16:28:39;21.30;62.90
74560;DHT22;63032;54.340;10.138;2022-09-09T16:31:10;21.30;63.00
74560;DHT22;63032;54.340;10.138;2022-09-09T16:33:37;21.20;63.00
74560;DHT22;63032;54.340;10.138;2022-09-09T16:36:07;21.20;63.10
74560;DHT22;63032;54.340;10.138;2022-09-09T16:38:33;21.20;63.20
74560;DHT22;63032;54.340;10.138;2022-09-09T16:41:02;21.10;63.20
74560;DHT22;63032;54.340;10.138;2022-09-09T16:43:30;21.10;63.30
74560;DHT22;63032;54.340;10.138;2022-09-09T16:45:56;21.10;63.40
74560;DHT22;63032;54.340;10.138;2022-09-09T16:48:24;21.10;63.50
74560;DHT22;63032;54.340;10.138;2022-09-09T16:50:49;21.10;63.50
74560;DHT22;63032;54.340;10.138;2022-09-09T16:53:15;21.10;63.50
74560;DHT22;63032;54.340;10.138;2022-09-09T16:55:41;21.10;63.50
74560;DHT22;63032;54.340;10.138;2022-09-09T16:58:11;21.10;63.50
74560;DHT22;63032;54.340;10.138;2022-09-09T17:00:36;21.00;63.50
74560;DHT22;63032;54.340;10.138;2022-09-09T17:03:02;21.00;63.50
74560;DHT22;63032;54.340;10.138;2022-09-09T17:05:28;21.00;63.60
74560;DHT22;63032;54.340;10.138;2022-09-09T17:07:57;21.00;64.10
74560;DHT22;63032;54.340;10.138;2022-09-09T17:10:23;20.70;65.30
74560;DHT22;63032;54.340;10.138;2022-09-09T17:12:49;20.40;65.60
74560;DHT22;63032;54.340;10.138;2022-09-09T17:15:15;20.20;66.90
74560;DHT22;63032;54.340;10.138;2022-09-09T17:17:43;20.10;67.20
74560;DHT22;63032;54.340;10.138;2022-09-09T17:20:10;20.00;67.80
74560;DHT22;63032;54.340;10.138;2022-09-09T17:22:36;19.90;68.20
74560;DHT22;63032;54.340;10.138;2022-09-09T17:25:02;19.90;68.60
74560;DHT22;63032;54.340;10.138;2022-09-09T17:27:29;19.90;68.30
74560;DHT22;63032;54.340;10.138;2022-09-09T17:29:57;19.90;68.60
74560;DHT22;63032;54.340;10.138;2022-09-09T17:32:23;19.90;69.50
74560;DHT22;63032;54.340;10.138;2022-09-09T17:34:52;19.80;69.30
74560;DHT22;63032;54.340;10.138;2022-09-09T17:37:18;19.80;69.20
74560;DHT22;63032;54.340;10.138;2022-09-09T17:39:44;19.80;69.80
74560;DHT22;63032;54.340;10.138;2022-09-09T17:42:10;19.80;69.70
74560;DHT22;63032;54.340;10.138;2022-09-09T17:44:36;19.70;70.30
74560;DHT22;63032;54.340;10.138;2022-09-09T17:47:01;19.80;70.20